sensor_id;sensor_type;location;lat;lon;timestamp;temperature;humidity
8424;DHT22;4249;49.072;9.770;2022-11-04T00:02:21;10.10;1.00
8424;DHT22;4249;49.072;9.770;2022-11-04T00:05:08;10.10;1.00
8424;DHT22;4249;49.072;9.770;2022-11-04T00:07:56;10.00;1.00
8424;DHT22;4249;49.072;9.770;2022-11-04T00:11:00;10.00;1.00
8424;DHT22;4249;49.072;9.770;2022-11-04T00:14:06;10.00;1.00
8424;DHT22;4249;49.072;9.770;2022-11-04T00:16:55;10.00;1.00
8424;DHT22;4249;49.072;9.770;2022-11-04T00:19:59;10.00;1.00
8424;DHT22;4249;49.072;9.770;2022-11-04T00:23:04;10.00;1.00
8424;DHT22;4249;49.072;9.770;2022-11-04T00:26:09;10.00;1.00
8424;DHT22;4249;49.072;9.770;2022-11-04T00:29:13;10.00;1.00
8424;DHT22;4249;49.072;9.770;2022-11-04T00:32:02;9.90;1.00
8424;DHT22;4249;49.072;9.770;2022-11-04T00:35:08;9.90;1.00
8424;DHT22;4249;49.072;9.770;2022-11-04T00:37:56;9.90;1.00
8424;DHT22;4249;49.072;9.770;2022-11-04T00:40:43;9.90;1.00
8424;DHT22;4249;49.072;9.770;2022-11-04T00:43:31;9.90;1.00
8424;DHT22;4249;49.072;9.770;2022-11-04T00:46:18;9.90;1.00
8424;DHT22;4249;49.072;9.770;2022-11-04T00:49:06;9.90;1.00
8424;DHT22;4249;49.072;9.770;2022-11-04T00:51:54;9.90;1.00
8424;DHT22;4249;49.072;9.770;2022-11-04T00:54:41;9.80;1.00
8424;DHT22;4249;49.072;9.770;2022-11-04T00:57:28;9.80;1.00
8424;DHT22;4249;49.072;9.770;2022-11-04T01:00:16;9.80;1.00
8424;DHT22;4249;49.072;9.770;2022-11-04T01:03:04;9.80;1.00
8424;DHT22;4249;49.072;9.770;2022-11-04T01:05:53;9.90;1.00
8424;DHT22;4249;49.072;9.770;2022-11-04T01:08:43;9.80;1.00
8424;DHT22;4249;49.072;9.770;2022-11-04T01:11:30;9.90;1.00
8424;DHT22;4249;49.072;9.770;2022-11-04T01:14:18;9.80;1.00
8424;DHT22;4249;49.072;9.770;2022-11-04T01:17:06;9.80;1.00
8424;DHT22;4249;49.072;9.770;2022-11-04T01:19:53;9.90;1.00
8424;DHT22;4249;49.072;9.770;2022-11-04T01:22:42;9.90;1.00
8424;DHT22;4249;49.072;9.770;2022-11-04T01:25:29;9.90;1.00
8424;DHT22;4249;49.072;9.770;2022-11-04T01:28:19;9.90;1.00
8424;DHT22;4249;49.072;9.770;2022-11-04T01:31:07;9.90;1.00
8424;DHT22;4249;49.072;9.770;2022-11-04T01:33:55;9.90;1.00
8424;DHT22;4249;49.072;9.770;2022-11-04T01:36:43;9.90;1.00
8424;DHT22;4249;49.072;9.770;2022-11-04T01:39:31;9.90;1.00
8424;DHT22;4249;49.072;9.770;2022-11-04T01:42:20;9.90;1.00
8424;DHT22;4249;49.072;9.770;2022-11-04T01:45:12;9.90;1.00
8424;DHT22;4249;49.072;9.770;2022-11-04T01:48:03;9.90;1.00
8424;DHT22;4249;49.072;9.770;2022-11-04T01:50:53;9.90;1.00
8424;DHT22;4249;49.072;9.770;2022-11-04T01:53:42;9.80;1.00
8424;DHT22;4249;49.072;9.770;2022-11-04T01:56:32;9.80;1.00
8424;DHT22;4249;49.072;9.770;2022-11-04T01:59:24;9.80;1.00
8424;DHT22;4249;49.072;9.770;2022-11-04T02:02:13;9.80;1.00
8424;DHT22;4249;49.072;9.770;2022-11-04T02:05:00;9.80;1.00
8424;DHT22;4249;49.072;9.770;2022-11-04T02:07:49;9.80;1.00
8424;DHT22;4249;49.072;9.770;2022-11-04T02:10:39;9.80;1.00
8424;DHT22;4249;49.072;9.770;2022-11-04T02:13:30;9.80;1.00
8424;DHT22;4249;49.072;9.770;2022-11-04T02:16:24;9.80;1.00
8424;DHT22;4249;49.072;9.770;2022-11-04T02:19:29;9.80;1.00
8424;DHT22;4249;49.072;9.770;2022-11-04T02:22:39;9.80;1.00
8424;DHT22;4249;49.072;9.770;2022-11-04T02:25:51;9.70;1.00
8424;DHT22;4249;49.072;9.770;2022-11-04T02:29:22;9.70;1.00
8424;DHT22;4249;49.072;9.770;2022-11-04T02:32:17;9.60;1.00
8424;DHT22;4249;49.072;9.770;2022-11-04T02:35:10;9.60;1.00
8424;DHT22;4249;49.072;9.770;2022-11-04T02:38:09;9.50;1.00
8424;DHT22;4249;49.072;9.770;2022-11-04T02:41:05;9.50;1.00
8424;DHT22;4249;49.072;9.770;2022-11-04T02:44:01;9.50;1.00
8424;DHT22;4249;49.072;9.770;2022-11-04T02:46:58;9.60;1.00
8424;DHT22;4249;49.072;9.770;2022-11-04T02:49:49;9.60;1.00
8424;DHT22;4249;49.072;9.770;2022-11-04T02:52:42;9.50;1.00
8424;DHT22;4249;49.072;9.770;2022-11-04T02:55:35;9.60;1.00
8424;DHT22;4249;49.072;9.770;2022-11-04T02:58:26;9.60;1.00
8424;DHT22;4249;49.072;9.770;2022-11-04T03:01:16;9.60;1.00
8424;DHT22;4249;49.072;9.770;2022-11-04T03:04:10;9.60;1.00
8424;DHT22;4249;49.072;9.770;2022-11-04T03:07:01;9.60;1.00
8424;DHT22;4249;49.072;9.770;2022-11-04T03:09:54;9.50;1.00
8424;DHT22;4249;49.072;9.770;2022-11-04T03:12:46;9.60;1.00
8424;DHT22;4249;49.072;9.770;2022-11-04T03:15:38;9.60;1.00
8424;DHT22;4249;49.072;9.770;2022-11-04T03:18:32;9.50;1.00
8424;DHT22;4249;49.072;9.770;2022-11-04T03:21:22;9.60;1.00
8424;DHT22;4249;49.072;9.770;2022-11-04T03:24:10;9.60;1.00
8424;DHT22;4249;49.072;9.770;2022-11-04T03:26:59;9.50;1.00
8424;DHT22;4249;49.072;9.770;2022-11-04T03:29:54;9.50;1.00
8424;DHT22;4249;49.072;9.770;2022-11-04T03:32:48;9.50;1.00
8424;DHT22;4249;49.072;9.770;2022-11-04T03:35:38;9.50;1.00
8424;DHT22;4249;49.072;9.770;2022-11-04T03:38:26;9.50;1.00
8424;DHT22;4249;49.072;9.770;2022-11-04T03:41:17;9.50;1.00
8424;DHT22;4249;49.072;9.770;2022-11-04T03:44:06;9.50;1.00
8424;DHT22;4249;49.072;9.770;2022-11-04T03:46:53;9.50;1.00
8424;DHT22;4249;49.072;9.770;2022-11-04T03:49:40;9.50;1.00
8424;DHT22;4249;49.072;9.770;2022-11-04T03:52:28;9.50;1.00
8424;DHT22;4249;49.072;9.770;2022-11-04T03:55:16;9.50;99.90
8424;DHT22;4249;49.072;9.770;2022-11-04T03:58:06;9.40;99.90
8424;DHT22;4249;49.072;9.770;2022-11-04T04:01:02;9.40;99.90
8424;DHT22;4249;49.072;9.770;2022-11-04T04:03:58;9.40;99.90
8424;DHT22;4249;49.072;9.770;2022-11-04T04:06:47;9.40;99.90
8424;DHT22;4249;49.072;9.770;2022-11-04T04:09:38;9.40;99.90
8424;DHT22;4249;49.072;9.770;2022-11-04T04:12:34;9.30;99.90
8424;DHT22;4249;49.072;9.770;2022-11-04T04:15:26;9.30;99.90
8424;DHT22;4249;49.072;9.770;2022-11-04T04:18:19;9.30;99.90
8424;DHT22;4249;49.072;9.770;2022-11-04T04:21:13;9.30;99.90
8424;DHT22;4249;49.072;9.770;2022-11-04T04:24:03;9.30;99.90
8424;DHT22;4249;49.072;9.770;2022-11-04T04:27:09;9.30;99.90
8424;DHT22;4249;49.072;9.770;2022-11-04T04:30:16;9.20;99.90
8424;DHT22;4249;49.072;9.770;2022-11-04T04:33:06;9.20;1.00
8424;DHT22;4249;49.072;9.770;2022-11-04T04:35:56;9.20;1.00
8424;DHT22;4249;49.072;9.770;2022-11-04T04:38:43;9.10;1.00
8424;DHT22;4249;49.072;9.770;2022-11-04T04:41:48;9.10;1.00
8424;DHT22;4249;49.072;9.770;2022-11-04T04:44:55;9.10;1.00
8424;DHT22;4249;49.072;9.770;2022-11-04T04:47:50;8.90;1.00
8424;DHT22;4249;49.072;9.770;2022-11-04T04:50:41;9.00;1.00
8424;DHT22;4249;49.072;9.770;2022-11-04T04:53:29;9.00;1.00
8424;DHT22;4249;49.072;9.770;2022-11-04T04:56:16;9.00;44.00
8424;DHT22;4249;49.072;9.770;2022-11-04T04:59:03;8.80;99.90
8424;DHT22;4249;49.072;9.770;2022-11-04T05:01:51;8.90;99.90
8424;DHT22;4249;49.072;9.770;2022-11-04T05:04:39;8.80;99.90
8424;DHT22;4249;49.072;9.770;2022-11-04T05:07:26;8.80;99.90
8424;DHT22;4249;49.072;9.770;2022-11-04T05:10:15;8.70;99.90
8424;DHT22;4249;49.072;9.770;2022-11-04T05:13:03;8.70;99.90
8424;DHT22;4249;49.072;9.770;2022-11-04T05:16:09;8.70;1.00
8424;DHT22;4249;49.072;9.770;2022-11-04T05:18:56;8.60;1.00
8424;DHT22;4249;49.072;9.770;2022-11-04T05:21:45;8.60;1.00
8424;DHT22;4249;49.072;9.770;2022-11-04T05:24:32;8.60;1.00
8424;DHT22;4249;49.072;9.770;2022-11-04T05:27:19;8.60;1.00
8424;DHT22;4249;49.072;9.770;2022-11-04T05:30:07;8.50;1.00
8424;DHT22;4249;49.072;9.770;2022-11-04T05:32:54;8.50;1.00
8424;DHT22;4249;49.072;9.770;2022-11-04T05:35:42;8.50;1.00
8424;DHT22;4249;49.072;9.770;2022-11-04T05:38:30;8.40;1.00
8424;DHT22;4249;49.072;9.770;2022-11-04T05:41:18;8.40;1.00
8424;DHT22;4249;49.072;9.770;2022-11-04T05:44:10;8.40;1.00
8424;DHT22;4249;49.072;9.770;2022-11-04T05:46:57;8.40;1.00
8424;DHT22;4249;49.072;9.770;2022-11-04T05:49:44;8.30;1.00
8424;DHT22;4249;49.072;9.770;2022-11-04T05:52:32;8.30;1.00
8424;DHT22;4249;49.072;9.770;2022-11-04T05:55:20;8.30;1.00
8424;DHT22;4249;49.072;9.770;2022-11-04T05:58:07;8.20;1.00
8424;DHT22;4249;49.072;9.770;2022-11-04T06:01:10;8.20;1.00
8424;DHT22;4249;49.072;9.770;2022-11-04T06:03:58;8.20;1.00
8424;DHT22;4249;49.072;9.770;2022-11-04T06:06:46;8.20;1.00
8424;DHT22;4249;49.072;9.770;2022-11-04T06:09:33;8.20;1.00
8424;DHT22;4249;49.072;9.770;2022-11-04T06:12:28;8.20;1.00
8424;DHT22;4249;49.072;9.770;2022-11-04T06:15:16;8.20;1.00
8424;DHT22;4249;49.072;9.770;2022-11-04T06:18:03;8.10;1.00
8424;DHT22;4249;49.072;9.770;2022-11-04T06:21:05;8.20;1.00
8424;DHT22;4249;49.072;9.770;2022-11-04T06:23:55;8.10;1.00
8424;DHT22;4249;49.072;9.770;2022-11-04T06:26:42;8.10;1.00
8424;DHT22;4249;49.072;9.770;2022-11-04T06:29:32;8.00;1.00
8424;DHT22;4249;49.072;9.770;2022-11-04T06:32:19;8.10;1.00
8424;DHT22;4249;49.072;9.770;2022-11-04T06:34:46;8.10;1.00
8424;DHT22;4249;49.072;9.770;2022-11-04T06:37:13;8.10;1.00
8424;DHT22;4249;49.072;9.770;2022-11-04T06:39:40;8.10;1.00
8424;DHT22;4249;49.072;9.770;2022-11-04T06:42:06;8.10;1.00
8424;DHT22;4249;49.072;9.770;2022-11-04T06:44:36;8.10;1.00
8424;DHT22;4249;49.072;9.770;2022-11-04T06:47:03;8.00;1.00
8424;DHT22;4249;49.072;9.770;2022-11-04T06:49:30;8.00;1.00
8424;DHT22;4249;49.072;9.770;2022-11-04T06:51:57;8.10;1.00
8424;DHT22;4249;49.072;9.770;2022-11-04T06:54:25;8.10;1.00
8424;DHT22;4249;49.072;9.770;2022-11-04T06:56:52;8.10;1.00
8424;DHT22;4249;49.072;9.770;2022-11-04T06:59:19;8.10;1.00
8424;DHT22;4249;49.072;9.770;2022-11-04T07:01:48;8.10;1.00
8424;DHT22;4249;49.072;9.770;2022-11-04T07:04:15;8.20;1.00
8424;DHT22;4249;49.072;9.770;2022-11-04T07:06:43;8.20;1.00
8424;DHT22;4249;49.072;9.770;2022-11-04T07:09:11;8.10;1.00
8424;DHT22;4249;49.072;9.770;2022-11-04T07:11:40;8.10;1.00
8424;DHT22;4249;49.072;9.770;2022-11-04T07:14:07;8.10;1.00
8424;DHT22;4249;49.072;9.770;2022-11-04T07:16:34;8.20;1.00
8424;DHT22;4249;49.072;9.770;2022-11-04T07:19:03;8.20;1.00
8424;DHT22;4249;49.072;9.770;2022-11-04T07:21:30;8.30;1.00
8424;DHT22;4249;49.072;9.770;2022-11-04T07:23:57;8.30;1.00
8424;DHT22;4249;49.072;9.770;2022-11-04T07:26:24;8.30;1.00
8424;DHT22;4249;49.072;9.770;2022-11-04T07:28:51;8.30;1.00
8424;DHT22;4249;49.072;9.770;2022-11-04T07:31:19;8.30;1.00
8424;DHT22;4249;49.072;9.770;2022-11-04T07:33:46;8.40;1.00
8424;DHT22;4249;49.072;9.770;2022-11-04T07:36:17;8.50;1.00
8424;DHT22;4249;49.072;9.770;2022-11-04T07:38:45;8.50;1.00
8424;DHT22;4249;49.072;9.770;2022-11-04T07:41:12;8.60;1.00
8424;DHT22;4249;49.072;9.770;2022-11-04T07:43:41;8.60;1.00
8424;DHT22;4249;49.072;9.770;2022-11-04T07:46:09;8.80;1.00
8424;DHT22;4249;49.072;9.770;2022-11-04T07:48:37;8.90;1.00
8424;DHT22;4249;49.072;9.770;2022-11-04T07:51:06;8.90;1.00
8424;DHT22;4249;49.072;9.770;2022-11-04T07:53:34;9.00;1.00
8424;DHT22;4249;49.072;9.770;2022-11-04T07:56:02;9.10;1.00
8424;DHT22;4249;49.072;9.770;2022-11-04T07:58:29;9.20;1.00
8424;DHT22;4249;49.072;9.770;2022-11-04T08:00:58;9.30;1.00
8424;DHT22;4249;49.072;9.770;2022-11-04T08:03:25;9.30;1.00
8424;DHT22;4249;49.072;9.770;2022-11-04T08:05:55;9.30;1.00
8424;DHT22;4249;49.072;9.770;2022-11-04T08:08:22;9.40;99.90
8424;DHT22;4249;49.072;9.770;2022-11-04T08:10:54;9.40;99.90
8424;DHT22;4249;49.072;9.770;2022-11-04T08:13:26;9.40;99.90
8424;DHT22;4249;49.072;9.770;2022-11-04T08:15:59;9.40;99.90
8424;DHT22;4249;49.072;9.770;2022-11-04T08:18:29;9.40;99.90
8424;DHT22;4249;49.072;9.770;2022-11-04T08:20:57;9.50;99.90
8424;DHT22;4249;49.072;9.770;2022-11-04T08:23:25;9.50;99.90
8424;DHT22;4249;49.072;9.770;2022-11-04T08:25:53;9.60;99.90
8424;DHT22;4249;49.072;9.770;2022-11-04T08:28:20;9.60;99.90
8424;DHT22;4249;49.072;9.770;2022-11-04T08:30:52;9.70;99.90
8424;DHT22;4249;49.072;9.770;2022-11-04T08:33:19;9.80;99.90
8424;DHT22;4249;49.072;9.770;2022-11-04T08:35:46;9.80;99.90
8424;DHT22;4249;49.072;9.770;2022-11-04T08:38:16;9.90;1.00
8424;DHT22;4249;49.072;9.770;2022-11-04T08:40:43;9.90;1.00
8424;DHT22;4249;49.072;9.770;2022-11-04T08:43:12;9.90;1.00
8424;DHT22;4249;49.072;9.770;2022-11-04T08:45:39;10.00;73.70
8424;DHT22;4249;49.072;9.770;2022-11-04T08:48:06;10.10;29.80
8424;DHT22;4249;49.072;9.770;2022-11-04T08:50:33;10.10;1.00
8424;DHT22;4249;49.072;9.770;2022-11-04T08:53:01;10.20;21.40
8424;DHT22;4249;49.072;9.770;2022-11-04T08:55:29;10.20;99.90
8424;DHT22;4249;49.072;9.770;2022-11-04T08:57:57;10.30;99.90
8424;DHT22;4249;49.072;9.770;2022-11-04T09:00:25;10.40;1.00
8424;DHT22;4249;49.072;9.770;2022-11-04T09:02:52;10.40;1.00
8424;DHT22;4249;49.072;9.770;2022-11-04T09:05:20;10.50;1.00
8424;DHT22;4249;49.072;9.770;2022-11-04T09:07:47;10.50;1.00
8424;DHT22;4249;49.072;9.770;2022-11-04T09:10:13;10.60;99.90
8424;DHT22;4249;49.072;9.770;2022-11-04T09:12:41;10.60;99.90
8424;DHT22;4249;49.072;9.770;2022-11-04T09:15:08;10.70;1.00
8424;DHT22;4249;49.072;9.770;2022-11-04T09:17:36;10.80;1.00
8424;DHT22;4249;49.072;9.770;2022-11-04T09:20:04;11.00;99.90
8424;DHT22;4249;49.072;9.770;2022-11-04T09:22:31;11.00;1.00
8424;DHT22;4249;49.072;9.770;2022-11-04T09:24:58;11.20;99.90
8424;DHT22;4249;49.072;9.770;2022-11-04T09:27:25;11.30;1.00
8424;DHT22;4249;49.072;9.770;2022-11-04T09:29:52;11.20;1.00
8424;DHT22;4249;49.072;9.770;2022-11-04T09:32:18;11.20;99.90
8424;DHT22;4249;49.072;9.770;2022-11-04T09:34:47;11.20;99.90
8424;DHT22;4249;49.072;9.770;2022-11-04T09:37:15;11.20;1.00
8424;DHT22;4249;49.072;9.770;2022-11-04T09:39:42;11.30;1.00
8424;DHT22;4249;49.072;9.770;2022-11-04T09:42:28;11.50;1.00
8424;DHT22;4249;49.072;9.770;2022-11-04T09:45:01;11.60;99.90
8424;DHT22;4249;49.072;9.770;2022-11-04T09:47:31;11.60;30.50
8424;DHT22;4249;49.072;9.770;2022-11-04T09:50:07;11.60;1.00
8424;DHT22;4249;49.072;9.770;2022-11-04T09:52:40;11.50;78.40
8424;DHT22;4249;49.072;9.770;2022-11-04T09:55:13;11.50;99.90
8424;DHT22;4249;49.072;9.770;2022-11-04T09:57:41;11.60;99.90
8424;DHT22;4249;49.072;9.770;2022-11-04T10:00:13;11.70;99.90
8424;DHT22;4249;49.072;9.770;2022-11-04T10:02:55;11.90;99.90
8424;DHT22;4249;49.072;9.770;2022-11-04T10:05:37;12.00;99.90
8424;DHT22;4249;49.072;9.770;2022-11-04T10:08:35;12.20;99.90
8424;DHT22;4249;49.072;9.770;2022-11-04T10:11:12;12.30;99.90
8424;DHT22;4249;49.072;9.770;2022-11-04T10:13:59;12.40;1.00
8424;DHT22;4249;49.072;9.770;2022-11-04T10:16:43;12.40;1.00
8424;DHT22;4249;49.072;9.770;2022-11-04T10:19:35;12.40;1.00
8424;DHT22;4249;49.072;9.770;2022-11-04T10:22:09;12.40;1.00
8424;DHT22;4249;49.072;9.770;2022-11-04T10:24:41;12.40;1.00
8424;DHT22;4249;49.072;9.770;2022-11-04T10:27:15;12.40;1.00
8424;DHT22;4249;49.072;9.770;2022-11-04T10:29:44;12.50;1.00
8424;DHT22;4249;49.072;9.770;2022-11-04T10:32:15;12.70;1.00
8424;DHT22;4249;49.072;9.770;2022-11-04T10:34:45;12.90;1.00
8424;DHT22;4249;49.072;9.770;2022-11-04T10:37:15;12.80;1.00
8424;DHT22;4249;49.072;9.770;2022-11-04T10:39:44;12.90;99.90
8424;DHT22;4249;49.072;9.770;2022-11-04T10:42:15;12.80;99.90
8424;DHT22;4249;49.072;9.770;2022-11-04T10:44:43;12.90;99.90
8424;DHT22;4249;49.072;9.770;2022-11-04T10:47:23;12.80;99.90
8424;DHT22;4249;49.072;9.770;2022-11-04T10:50:01;12.90;99.90
8424;DHT22;4249;49.072;9.770;2022-11-04T10:52:33;12.70;99.90
8424;DHT22;4249;49.072;9.770;2022-11-04T10:55:04;12.70;99.90
8424;DHT22;4249;49.072;9.770;2022-11-04T10:57:37;12.80;99.90
8424;DHT22;4249;49.072;9.770;2022-11-04T11:00:05;12.50;99.90
8424;DHT22;4249;49.072;9.770;2022-11-04T11:02:50;12.80;99.90
8424;DHT22;4249;49.072;9.770;2022-11-04T11:05:22;12.90;99.90
8424;DHT22;4249;49.072;9.770;2022-11-04T11:07:53;13.10;99.90
8424;DHT22;4249;49.072;9.770;2022-11-04T11:10:22;13.10;99.90
8424;DHT22;4249;49.072;9.770;2022-11-04T11:12:54;13.10;99.90
8424;DHT22;4249;49.072;9.770;2022-11-04T11:15:29;13.20;99.90
8424;DHT22;4249;49.072;9.770;2022-11-04T11:18:09;13.30;99.90
8424;DHT22;4249;49.072;9.770;2022-11-04T11:20:38;13.30;99.90
8424;DHT22;4249;49.072;9.770;2022-11-04T11:23:35;13.40;99.90
8424;DHT22;4249;49.072;9.770;2022-11-04T11:26:04;13.30;99.90
8424;DHT22;4249;49.072;9.770;2022-11-04T11:28:32;13.20;99.90
8424;DHT22;4249;49.072;9.770;2022-11-04T11:31:04;13.30;99.90
8424;DHT22;4249;49.072;9.770;2022-11-04T11:33:35;13.20;99.90
8424;DHT22;4249;49.072;9.770;2022-11-04T11:36:05;13.30;99.90
8424;DHT22;4249;49.072;9.770;2022-11-04T11:38:49;13.40;99.90
8424;DHT22;4249;49.072;9.770;2022-11-04T11:41:16;13.40;99.90
8424;DHT22;4249;49.072;9.770;2022-11-04T11:43:50;13.50;99.90
8424;DHT22;4249;49.072;9.770;2022-11-04T11:46:21;13.60;99.90
8424;DHT22;4249;49.072;9.770;2022-11-04T11:48:50;13.60;99.90
8424;DHT22;4249;49.072;9.770;2022-11-04T11:51:23;13.60;99.90
8424;DHT22;4249;49.072;9.770;2022-11-04T11:54:14;13.60;99.90
8424;DHT22;4249;49.072;9.770;2022-11-04T11:56:44;13.60;99.90
8424;DHT22;4249;49.072;9.770;2022-11-04T11:59:29;13.70;99.90
8424;DHT22;4249;49.072;9.770;2022-11-04T12:02:22;13.70;99.90
8424;DHT22;4249;49.072;9.770;2022-11-04T12:04:51;13.70;99.90
8424;DHT22;4249;49.072;9.770;2022-11-04T12:07:25;13.80;99.90
8424;DHT22;4249;49.072;9.770;2022-11-04T12:10:04;13.90;99.90
8424;DHT22;4249;49.072;9.770;2022-11-04T12:12:48;13.80;99.90
8424;DHT22;4249;49.072;9.770;2022-11-04T12:15:28;13.90;99.90
8424;DHT22;4249;49.072;9.770;2022-11-04T12:21:05;13.60;99.90
8424;DHT22;4249;49.072;9.770;2022-11-04T12:23:38;13.50;99.90
8424;DHT22;4249;49.072;9.770;2022-11-04T12:26:15;13.50;99.90
8424;DHT22;4249;49.072;9.770;2022-11-04T12:29:00;13.40;99.90
8424;DHT22;4249;49.072;9.770;2022-11-04T12:31:39;13.30;99.90
8424;DHT22;4249;49.072;9.770;2022-11-04T12:34:15;13.20;99.90
8424;DHT22;4249;49.072;9.770;2022-11-04T12:36:57;13.20;99.90
8424;DHT22;4249;49.072;9.770;2022-11-04T12:39:36;13.10;99.90
8424;DHT22;4249;49.072;9.770;2022-11-04T12:42:13;13.00;99.90
8424;DHT22;4249;49.072;9.770;2022-11-04T12:44:50;13.00;99.90
8424;DHT22;4249;49.072;9.770;2022-11-04T12:47:27;13.10;99.90
8424;DHT22;4249;49.072;9.770;2022-11-04T12:53:20;13.20;99.90
8424;DHT22;4249;49.072;9.770;2022-11-04T12:55:55;13.20;99.90
8424;DHT22;4249;49.072;9.770;2022-11-04T12:58:45;13.00;99.90
8424;DHT22;4249;49.072;9.770;2022-11-04T13:01:17;13.00;99.90
8424;DHT22;4249;49.072;9.770;2022-11-04T13:03:51;12.80;99.90
8424;DHT22;4249;49.072;9.770;2022-11-04T13:06:22;12.80;99.90
8424;DHT22;4249;49.072;9.770;2022-11-04T13:08:53;12.70;99.90
8424;DHT22;4249;49.072;9.770;2022-11-04T13:11:24;12.70;99.90
8424;DHT22;4249;49.072;9.770;2022-11-04T13:14:04;12.80;99.90
8424;DHT22;4249;49.072;9.770;2022-11-04T13:16:34;12.80;99.90
8424;DHT22;4249;49.072;9.770;2022-11-04T13:19:04;12.70;99.90
8424;DHT22;4249;49.072;9.770;2022-11-04T13:21:35;12.80;99.90
8424;DHT22;4249;49.072;9.770;2022-11-04T13:24:05;12.80;99.90
8424;DHT22;4249;49.072;9.770;2022-11-04T13:26:37;12.80;99.90
8424;DHT22;4249;49.072;9.770;2022-11-04T13:29:10;12.80;99.90
8424;DHT22;4249;49.072;9.770;2022-11-04T13:31:45;12.90;99.90
8424;DHT22;4249;49.072;9.770;2022-11-04T13:34:21;12.90;99.90
8424;DHT22;4249;49.072;9.770;2022-11-04T13:37:02;12.80;99.90
8424;DHT22;4249;49.072;9.770;2022-11-04T13:39:35;12.80;99.90
8424;DHT22;4249;49.072;9.770;2022-11-04T13:44:56;12.80;99.90
8424;DHT22;4249;49.072;9.770;2022-11-04T13:47:34;12.90;99.90
8424;DHT22;4249;49.072;9.770;2022-11-04T13:50:02;12.90;99.90
8424;DHT22;4249;49.072;9.770;2022-11-04T13:52:32;12.80;99.90
8424;DHT22;4249;49.072;9.770;2022-11-04T13:55:03;12.80;99.90
8424;DHT22;4249;49.072;9.770;2022-11-04T13:57:34;12.70;99.90
8424;DHT22;4249;49.072;9.770;2022-11-04T14:00:23;12.60;99.90
8424;DHT22;4249;49.072;9.770;2022-11-04T14:02:51;12.60;99.90
8424;DHT22;4249;49.072;9.770;2022-11-04T14:08:21;12.50;99.90
8424;DHT22;4249;49.072;9.770;2022-11-04T14:11:11;12.40;99.90
8424;DHT22;4249;49.072;9.770;2022-11-04T14:14:03;12.40;99.90
8424;DHT22;4249;49.072;9.770;2022-11-04T14:16:51;12.40;99.90
8424;DHT22;4249;49.072;9.770;2022-11-04T14:19:56;12.30;99.90
8424;DHT22;4249;49.072;9.770;2022-11-04T14:22:49;12.20;99.90
8424;DHT22;4249;49.072;9.770;2022-11-04T14:25:40;12.20;99.90
8424;DHT22;4249;49.072;9.770;2022-11-04T14:28:30;12.10;99.90
8424;DHT22;4249;49.072;9.770;2022-11-04T14:31:34;12.00;99.90
8424;DHT22;4249;49.072;9.770;2022-11-04T14:34:27;12.00;99.90
8424;DHT22;4249;49.072;9.770;2022-11-04T14:37:19;12.00;99.90
8424;DHT22;4249;49.072;9.770;2022-11-04T14:40:23;11.90;99.90
8424;DHT22;4249;49.072;9.770;2022-11-04T14:43:19;11.80;99.90
8424;DHT22;4249;49.072;9.770;2022-11-04T14:46:18;11.70;99.90
8424;DHT22;4249;49.072;9.770;2022-11-04T14:49:31;11.60;99.90
8424;DHT22;4249;49.072;9.770;2022-11-04T14:52:21;11.50;99.90
8424;DHT22;4249;49.072;9.770;2022-11-04T14:55:13;11.50;1.00
8424;DHT22;4249;49.072;9.770;2022-11-04T14:58:21;11.40;1.00
8424;DHT22;4249;49.072;9.770;2022-11-04T15:01:08;11.40;1.00
8424;DHT22;4249;49.072;9.770;2022-11-04T15:04:05;11.30;1.00
8424;DHT22;4249;49.072;9.770;2022-11-04T15:06:56;11.20;99.90
8424;DHT22;4249;49.072;9.770;2022-11-04T15:09:47;11.10;99.90
8424;DHT22;4249;49.072;9.770;2022-11-04T15:12:43;11.00;1.00
8424;DHT22;4249;49.072;9.770;2022-11-04T15:15:37;10.90;1.00
8424;DHT22;4249;49.072;9.770;2022-11-04T15:18:26;10.80;99.90
8424;DHT22;4249;49.072;9.770;2022-11-04T15:21:15;10.70;1.00
8424;DHT22;4249;49.072;9.770;2022-11-04T15:24:04;10.60;99.90
8424;DHT22;4249;49.072;9.770;2022-11-04T15:26:53;10.60;1.00
8424;DHT22;4249;49.072;9.770;2022-11-04T15:29:40;10.60;1.00
8424;DHT22;4249;49.072;9.770;2022-11-04T15:32:38;10.60;99.90
8424;DHT22;4249;49.072;9.770;2022-11-04T15:35:27;10.50;99.90
8424;DHT22;4249;49.072;9.770;2022-11-04T15:38:15;10.50;1.00
8424;DHT22;4249;49.072;9.770;2022-11-04T15:41:04;10.50;1.00
8424;DHT22;4249;49.072;9.770;2022-11-04T15:44:14;10.50;1.00
8424;DHT22;4249;49.072;9.770;2022-11-04T15:50:20;10.40;94.40
8424;DHT22;4249;49.072;9.770;2022-11-04T15:53:09;10.40;1.00
8424;DHT22;4249;49.072;9.770;2022-11-04T15:55:56;10.30;1.00
8424;DHT22;4249;49.072;9.770;2022-11-04T15:58:46;10.30;1.00
8424;DHT22;4249;49.072;9.770;2022-11-04T16:01:43;10.20;99.90
8424;DHT22;4249;49.072;9.770;2022-11-04T16:04:30;10.10;12.90
8424;DHT22;4249;49.072;9.770;2022-11-04T16:07:21;9.90;1.00
8424;DHT22;4249;49.072;9.770;2022-11-04T16:10:24;9.80;1.00
8424;DHT22;4249;49.072;9.770;2022-11-04T16:13:22;9.70;1.00
8424;DHT22;4249;49.072;9.770;2022-11-04T16:16:20;9.50;99.90
8424;DHT22;4249;49.072;9.770;2022-11-04T16:19:16;9.40;1.00
8424;DHT22;4249;49.072;9.770;2022-11-04T16:22:06;9.30;1.00
8424;DHT22;4249;49.072;9.770;2022-11-04T16:24:55;9.20;99.90
8424;DHT22;4249;49.072;9.770;2022-11-04T16:27:44;9.10;1.00
8424;DHT22;4249;49.072;9.770;2022-11-04T16:30:31;9.10;1.00
8424;DHT22;4249;49.072;9.770;2022-11-04T16:33:20;9.10;99.90
8424;DHT22;4249;49.072;9.770;2022-11-04T16:36:11;9.10;99.90
8424;DHT22;4249;49.072;9.770;2022-11-04T16:39:08;9.10;99.90
8424;DHT22;4249;49.072;9.770;2022-11-04T16:41:55;9.10;99.90
8424;DHT22;4249;49.072;9.770;2022-11-04T16:44:46;9.10;99.90
8424;DHT22;4249;49.072;9.770;2022-11-04T16:47:35;9.10;99.90
8424;DHT22;4249;49.072;9.770;2022-11-04T16:50:26;9.20;99.90
8424;DHT22;4249;49.072;9.770;2022-11-04T16:53:14;9.20;99.90
8424;DHT22;4249;49.072;9.770;2022-11-04T16:56:01;9.30;99.90
8424;DHT22;4249;49.072;9.770;2022-11-04T16:58:48;9.30;99.90
8424;DHT22;4249;49.072;9.770;2022-11-04T17:01:36;9.30;99.90
8424;DHT22;4249;49.072;9.770;2022-11-04T17:04:25;9.30;99.90
8424;DHT22;4249;49.072;9.770;2022-11-04T17:07:14;9.40;99.90
8424;DHT22;4249;49.072;9.770;2022-11-04T17:10:01;9.40;99.90
8424;DHT22;4249;49.072;9.770;2022-11-04T17:12:50;9.40;1.00
8424;DHT22;4249;49.072;9.770;2022-11-04T17:15:37;9.40;1.00
8424;DHT22;4249;49.072;9.770;2022-11-04T17:18:28;9.40;1.00
8424;DHT22;4249;49.072;9.770;2022-11-04T17:21:16;9.40;1.00
8424;DHT22;4249;49.072;9.770;2022-11-04T17:24:07;9.30;1.00
8424;DHT22;4249;49.072;9.770;2022-11-04T17:26:54;9.30;1.00
8424;DHT22;4249;49.072;9.770;2022-11-04T17:29:42;9.30;1.00
8424;DHT22;4249;49.072;9.770;2022-11-04T17:32:29;9.30;1.00
8424;DHT22;4249;49.072;9.770;2022-11-04T17:35:17;9.30;1.00
8424;DHT22;4249;49.072;9.770;2022-11-04T17:38:04;9.20;1.00
8424;DHT22;4249;49.072;9.770;2022-11-04T17:40:52;9.20;1.00
8424;DHT22;4249;49.072;9.770;2022-11-04T17:43:57;9.20;1.00
8424;DHT22;4249;49.072;9.770;2022-11-04T17:46:47;9.20;1.00
8424;DHT22;4249;49.072;9.770;2022-11-04T17:49:35;9.20;1.00
8424;DHT22;4249;49.072;9.770;2022-11-04T17:52:23;9.20;1.00
8424;DHT22;4249;49.072;9.770;2022-11-04T17:55:11;9.20;1.00
8424;DHT22;4249;49.072;9.770;2022-11-04T17:58:00;9.30;1.00
8424;DHT22;4249;49.072;9.770;2022-11-04T18:00:47;9.30;1.00
8424;DHT22;4249;49.072;9.770;2022-11-04T18:03:34;9.30;1.00
8424;DHT22;4249;49.072;9.770;2022-11-04T18:06:22;9.30;1.00
8424;DHT22;4249;49.072;9.770;2022-11-04T18:09:10;9.30;1.00
8424;DHT22;4249;49.072;9.770;2022-11-04T18:11:57;9.30;1.00
8424;DHT22;4249;49.072;9.770;2022-11-04T18:15:03;9.30;1.00
8424;DHT22;4249;49.072;9.770;2022-11-04T18:17:51;9.30;1.00
8424;DHT22;4249;49.072;9.770;2022-11-04T18:20:38;9.30;1.00